createdAt,value
2017-05-16T00:00:26.889Z,0
2017-05-16T00:01:07.450Z,0
2017-05-16T00:01:48.018Z,0
2017-05-16T00:02:28.591Z,0
2017-05-16T00:03:09.204Z,0
2017-05-16T00:03:49.777Z,0
2017-05-16T00:04:30.373Z,0
2017-05-16T00:05:10.952Z,0
2017-05-16T00:05:51.527Z,0
2017-05-16T00:06:32.117Z,0
2017-05-16T00:07:12.695Z,0
2017-05-16T00:07:53.265Z,0
2017-05-16T00:08:33.874Z,0
2017-05-16T00:09:14.466Z,0
2017-05-16T00:09:55.071Z,0
2017-05-16T00:10:35.653Z,0
2017-05-16T00:11:16.228Z,0
2017-05-16T00:11:56.866Z,0
2017-05-16T00:12:37.410Z,0
2017-05-16T00:13:17.999Z,0
2017-05-16T00:13:58.615Z,0
2017-05-16T00:14:39.183Z,0
2017-05-16T00:15:19.780Z,0
2017-05-16T00:16:00.353Z,0
2017-05-16T00:16:40.941Z,0
2017-05-16T00:17:21.557Z,0
2017-05-16T00:18:02.144Z,0
2017-05-16T00:18:42.716Z,0
2017-05-16T00:19:23.289Z,0
2017-05-16T00:20:03.862Z,0
2017-05-16T00:20:44.432Z,0
2017-05-16T00:21:25.016Z,0
2017-05-16T00:22:05.611Z,0
2017-05-16T00:22:46.201Z,0
2017-05-16T00:23:26.782Z,0
2017-05-16T00:24:07.348Z,0
2017-05-16T00:24:47.920Z,0
2017-05-16T00:25:28.496Z,0
2017-05-16T00:26:09.066Z,0
2017-05-16T00:26:49.651Z,0
2017-05-16T00:27:30.234Z,0
2017-05-16T00:28:10.818Z,0
2017-05-16T00:28:51.402Z,0
2017-05-16T00:29:32.018Z,0
2017-05-16T00:30:12.630Z,0
2017-05-16T00:30:53.159Z,0
2017-05-16T00:31:33.738Z,0
2017-05-16T00:32:14.339Z,0
2017-05-16T00:32:54.964Z,0
2017-05-16T00:33:35.493Z,0
2017-05-16T00:34:16.080Z,0
2017-05-16T00:34:56.671Z,0
2017-05-16T00:35:37.240Z,0
2017-05-16T00:36:17.818Z,0
2017-05-16T00:36:58.389Z,0
2017-05-16T00:37:38.991Z,0
2017-05-16T00:38:19.593Z,0
2017-05-16T00:39:00.179Z,0
2017-05-16T00:39:40.778Z,0
2017-05-16T00:40:21.348Z,0
2017-05-16T00:41:01.940Z,0
2017-05-16T00:41:42.509Z,0
2017-05-16T00:42:23.104Z,0
2017-05-16T00:43:03.690Z,0
2017-05-16T00:43:44.267Z,0
2017-05-16T00:44:24.871Z,0
2017-05-16T00:45:05.448Z,0
2017-05-16T00:45:46.023Z,0
2017-05-16T00:46:26.657Z,0
2017-05-16T00:47:07.197Z,0
2017-05-16T00:47:47.771Z,0
2017-05-16T00:48:28.383Z,0
2017-05-16T00:49:08.923Z,0
2017-05-16T00:49:49.509Z,0
2017-05-16T00:50:30.081Z,0
2017-05-16T00:51:10.652Z,0
2017-05-16T00:51:51.265Z,0
2017-05-16T00:52:31.843Z,0
2017-05-16T00:53:12.413Z,0
2017-05-16T00:53:52.980Z,0
2017-05-16T00:54:33.579Z,0
2017-05-16T00:55:14.165Z,0
2017-05-16T00:55:54.759Z,0
2017-05-16T00:56:35.342Z,0
2017-05-16T00:57:15.940Z,0
2017-05-16T00:57:56.526Z,0
2017-05-16T00:58:37.125Z,0
2017-05-16T00:59:18.635Z,0
2017-05-16T00:59:59.224Z,0
2017-05-16T01:00:39.815Z,0
2017-05-16T01:01:20.408Z,0
2017-05-16T01:02:00.984Z,0
2017-05-16T01:02:41.576Z,0
2017-05-16T01:03:22.147Z,0
2017-05-16T01:04:02.749Z,0
2017-05-16T01:04:43.342Z,0
2017-05-16T01:05:23.935Z,0
2017-05-16T01:06:04.489Z,0
2017-05-16T01:06:45.085Z,0
2017-05-16T01:07:25.689Z,0
2017-05-16T01:08:06.271Z,0
2017-05-16T01:08:46.840Z,0
2017-05-16T01:09:27.412Z,0
2017-05-16T01:10:08.012Z,0
2017-05-16T01:10:48.556Z,0
2017-05-16T01:11:29.148Z,0
2017-05-16T01:12:09.738Z,0
2017-05-16T01:12:50.315Z,0
2017-05-16T01:13:30.887Z,0
2017-05-16T01:14:11.453Z,0
2017-05-16T01:14:52.028Z,0
2017-05-16T01:15:32.602Z,0
2017-05-16T01:16:13.184Z,0
2017-05-16T01:16:53.759Z,0
2017-05-16T01:17:34.420Z,0
2017-05-16T01:18:14.939Z,0
2017-05-16T01:18:55.528Z,0
2017-05-16T01:19:36.145Z,0
2017-05-16T01:20:16.717Z,0
2017-05-16T01:20:57.309Z,0
2017-05-16T01:21:37.883Z,0
2017-05-16T01:22:18.511Z,0
2017-05-16T01:22:59.090Z,0
2017-05-16T01:23:39.680Z,0
2017-05-16T01:24:20.260Z,0
2017-05-16T01:25:00.835Z,0
2017-05-16T01:25:41.418Z,0
2017-05-16T01:26:21.996Z,0
2017-05-16T01:27:02.568Z,0
2017-05-16T01:27:43.189Z,0
2017-05-16T01:28:23.735Z,0
2017-05-16T01:29:04.313Z,0
2017-05-16T01:29:44.883Z,0
2017-05-16T01:30:25.491Z,0
2017-05-16T01:31:06.064Z,0
2017-05-16T01:31:46.635Z,0
2017-05-16T01:32:27.216Z,0
2017-05-16T01:33:07.813Z,0
2017-05-16T01:33:48.385Z,0
2017-05-16T01:34:28.960Z,0
2017-05-16T01:35:09.531Z,0
2017-05-16T01:35:50.105Z,0
2017-05-16T01:36:30.716Z,0
2017-05-16T01:37:11.292Z,0
2017-05-16T01:37:51.861Z,0
2017-05-16T01:38:32.432Z,0
2017-05-16T01:39:13.001Z,0
2017-05-16T01:39:53.576Z,0
2017-05-16T01:40:34.149Z,0
2017-05-16T01:41:14.719Z,0
2017-05-16T01:41:55.322Z,0
2017-05-16T01:42:35.921Z,0
2017-05-16T01:43:16.556Z,0
2017-05-16T01:43:57.128Z,0
2017-05-16T01:44:37.731Z,0
2017-05-16T01:45:18.313Z,0
2017-05-16T01:45:58.878Z,0
2017-05-16T01:46:39.469Z,0
2017-05-16T01:47:20.062Z,0
2017-05-16T01:48:00.634Z,0
2017-05-16T01:48:47.814Z,0
2017-05-16T01:49:28.361Z,0
2017-05-16T01:50:08.895Z,0
2017-05-16T01:50:49.430Z,0
2017-05-16T01:51:29.976Z,0
2017-05-16T01:52:10.625Z,0
2017-05-16T01:52:51.176Z,0
2017-05-16T01:53:31.729Z,0
2017-05-16T01:54:12.300Z,0
2017-05-16T01:54:52.841Z,0
2017-05-16T01:55:33.390Z,0
2017-05-16T01:56:13.938Z,0
2017-05-16T01:56:54.485Z,0
2017-05-16T01:57:35.025Z,0
2017-05-16T01:58:15.558Z,0
2017-05-16T01:58:56.091Z,0
2017-05-16T01:59:36.623Z,0
2017-05-16T02:00:17.160Z,0
2017-05-16T02:00:57.701Z,0
2017-05-16T02:01:38.246Z,0
2017-05-16T02:02:18.790Z,0
2017-05-16T02:02:59.352Z,0
2017-05-16T02:03:39.897Z,0
2017-05-16T02:04:20.440Z,0
2017-05-16T02:05:00.986Z,0
2017-05-16T02:05:41.521Z,0
2017-05-16T02:06:22.059Z,0
2017-05-16T02:07:02.590Z,0
2017-05-16T02:07:43.131Z,0
2017-05-16T02:08:23.668Z,0
2017-05-16T02:09:04.204Z,0
2017-05-16T02:09:44.736Z,0
2017-05-16T02:10:25.305Z,0
2017-05-16T02:11:05.850Z,0
2017-05-16T02:11:46.400Z,0
2017-05-16T02:12:26.948Z,0
2017-05-16T02:13:07.498Z,0
2017-05-16T02:13:48.043Z,0
2017-05-16T02:14:28.600Z,0
2017-05-16T02:15:09.166Z,0
2017-05-16T02:15:49.714Z,0
2017-05-16T02:16:30.260Z,0
2017-05-16T02:17:10.805Z,0
2017-05-16T02:17:51.354Z,0
2017-05-16T02:18:31.900Z,0
2017-05-16T02:19:12.447Z,0
2017-05-16T02:19:53.001Z,0
2017-05-16T02:20:33.537Z,0
2017-05-16T02:21:14.065Z,0
2017-05-16T02:21:54.616Z,0
2017-05-16T02:22:35.138Z,0
2017-05-16T02:23:15.685Z,0
2017-05-16T02:23:56.231Z,0
2017-05-16T02:24:36.780Z,0
2017-05-16T02:25:17.331Z,0
2017-05-16T02:25:57.877Z,0
2017-05-16T02:26:38.415Z,0
2017-05-16T02:27:18.963Z,0
2017-05-16T02:27:59.536Z,0
2017-05-16T02:28:40.018Z,0
2017-05-16T02:29:20.544Z,0
2017-05-16T02:30:01.086Z,0
2017-05-16T02:30:41.622Z,0
2017-05-16T02:31:22.168Z,0
2017-05-16T02:32:02.706Z,0
2017-05-16T02:32:43.240Z,0
2017-05-16T02:33:23.768Z,0
2017-05-16T02:34:04.304Z,0
2017-05-16T02:34:44.829Z,0
2017-05-16T02:35:25.369Z,0
2017-05-16T02:36:05.900Z,0
2017-05-16T02:36:46.436Z,0
2017-05-16T02:37:26.964Z,0
2017-05-16T02:38:07.494Z,0
2017-05-16T02:38:48.062Z,0
2017-05-16T02:39:28.588Z,0
2017-05-16T02:40:09.164Z,0
2017-05-16T02:40:49.659Z,0
2017-05-16T02:41:30.202Z,0
2017-05-16T02:42:10.722Z,0
2017-05-16T02:42:51.266Z,0
2017-05-16T02:43:31.798Z,0
2017-05-16T02:44:12.340Z,0
2017-05-16T02:44:52.891Z,0
2017-05-16T02:45:33.417Z,0
2017-05-16T02:46:13.964Z,0
2017-05-16T02:46:54.480Z,0
2017-05-16T02:47:35.047Z,0
2017-05-16T02:48:15.611Z,0
2017-05-16T02:48:56.159Z,0
2017-05-16T02:49:36.686Z,0
2017-05-16T02:50:17.214Z,0
2017-05-16T02:50:57.753Z,0
2017-05-16T02:51:38.289Z,0
2017-05-16T02:52:18.837Z,0
2017-05-16T02:52:59.386Z,0
2017-05-16T02:53:39.914Z,0
2017-05-16T02:54:20.454Z,0
2017-05-16T02:55:00.998Z,0
2017-05-16T02:55:41.515Z,0
2017-05-16T02:56:22.052Z,0
2017-05-16T02:57:02.593Z,0
2017-05-16T02:57:43.125Z,0
2017-05-16T02:58:23.658Z,0
2017-05-16T02:59:04.233Z,0
2017-05-16T02:59:44.757Z,0
2017-05-16T03:00:25.336Z,0
2017-05-16T03:01:05.882Z,0
2017-05-16T03:01:46.411Z,0
2017-05-16T03:02:26.945Z,0
2017-05-16T03:03:07.490Z,0
2017-05-16T03:03:48.047Z,0
2017-05-16T03:04:28.600Z,0
2017-05-16T03:05:09.148Z,0
2017-05-16T03:05:49.685Z,0
2017-05-16T03:06:30.233Z,0
2017-05-16T03:07:10.772Z,0
2017-05-16T03:07:51.315Z,0
2017-05-16T03:08:31.852Z,0
2017-05-16T03:09:12.398Z,0
2017-05-16T03:09:52.931Z,0
2017-05-16T03:10:33.502Z,0
2017-05-16T03:11:14.022Z,0
2017-05-16T03:11:54.547Z,0
2017-05-16T03:12:35.077Z,0
2017-05-16T03:13:15.623Z,0
2017-05-16T03:13:56.161Z,0
2017-05-16T03:14:36.695Z,0
2017-05-16T03:15:17.218Z,0
2017-05-16T03:15:57.766Z,0
2017-05-16T03:16:38.309Z,0
2017-05-16T03:17:18.851Z,0
2017-05-16T03:17:59.434Z,0
2017-05-16T03:18:39.934Z,0
2017-05-16T03:19:20.465Z,0
2017-05-16T03:20:01.047Z,0
2017-05-16T03:20:41.594Z,0
2017-05-16T03:21:22.141Z,0
2017-05-16T03:22:02.687Z,0
2017-05-16T03:22:43.218Z,0
2017-05-16T03:23:23.810Z,0
2017-05-16T03:24:04.345Z,0
2017-05-16T03:24:44.894Z,0
2017-05-16T03:25:25.435Z,0
2017-05-16T03:26:05.972Z,0
2017-05-16T03:26:46.535Z,0
2017-05-16T03:27:27.074Z,0
2017-05-16T03:28:07.666Z,0
2017-05-16T03:28:48.215Z,0
2017-05-16T03:29:28.738Z,0
2017-05-16T03:30:09.313Z,0
2017-05-16T03:30:49.867Z,0
2017-05-16T03:31:30.404Z,0
2017-05-16T03:32:10.916Z,0
2017-05-16T03:32:51.463Z,0
2017-05-16T03:33:31.980Z,0
2017-05-16T03:34:12.514Z,0
2017-05-16T03:34:53.050Z,0
2017-05-16T03:35:33.576Z,0
2017-05-16T03:36:14.135Z,0
2017-05-16T03:36:54.629Z,0
2017-05-16T03:37:35.215Z,0
2017-05-16T03:38:15.742Z,0
2017-05-16T03:38:56.254Z,0
2017-05-16T03:39:36.770Z,0
2017-05-16T03:40:17.369Z,0
2017-05-16T03:40:57.908Z,5
2017-05-16T03:41:38.471Z,5
2017-05-16T03:42:18.991Z,5
2017-05-16T03:42:59.561Z,5
2017-05-16T03:43:40.101Z,5
2017-05-16T03:44:20.640Z,5
2017-05-16T03:45:01.187Z,5
2017-05-16T03:45:41.727Z,5
2017-05-16T03:46:22.269Z,5
2017-05-16T03:47:02.850Z,5
2017-05-16T03:47:43.374Z,5
2017-05-16T03:48:23.907Z,5
2017-05-16T03:49:04.433Z,5
2017-05-16T03:49:44.966Z,5
2017-05-16T03:50:25.499Z,5
2017-05-16T03:51:06.144Z,5
2017-05-16T03:51:46.638Z,5
2017-05-16T03:52:27.190Z,5
2017-05-16T03:53:07.742Z,5
2017-05-16T03:53:48.289Z,5
2017-05-16T03:54:28.842Z,5
2017-05-16T03:55:09.371Z,5
2017-05-16T03:55:49.916Z,5
2017-05-16T03:56:30.478Z,5
2017-05-16T03:57:11.039Z,5
2017-05-16T03:57:51.585Z,5
2017-05-16T03:58:32.134Z,10
2017-05-16T03:59:12.677Z,10
2017-05-16T03:59:53.219Z,10
2017-05-16T04:00:33.804Z,10
2017-05-16T04:01:14.344Z,10
2017-05-16T04:01:54.869Z,10
2017-05-16T04:02:35.443Z,10
2017-05-16T04:03:15.970Z,10
2017-05-16T04:03:56.532Z,10
2017-05-16T04:04:37.085Z,10
2017-05-16T04:05:17.652Z,10
2017-05-16T04:05:58.190Z,10
2017-05-16T04:06:38.740Z,10
2017-05-16T04:07:19.297Z,10
2017-05-16T04:07:59.837Z,15
2017-05-16T04:08:40.398Z,15
2017-05-16T04:09:20.929Z,15
2017-05-16T04:10:01.451Z,15
2017-05-16T04:10:41.995Z,15
2017-05-16T04:11:22.539Z,15
2017-05-16T04:12:03.070Z,15
2017-05-16T04:12:43.654Z,15
2017-05-16T04:13:24.205Z,15
2017-05-16T04:14:04.784Z,15
2017-05-16T04:14:45.327Z,15
2017-05-16T04:15:25.878Z,15
2017-05-16T04:16:06.416Z,20
2017-05-16T04:16:46.929Z,20
2017-05-16T04:17:27.481Z,20
2017-05-16T04:18:08.018Z,20
2017-05-16T04:18:48.568Z,20
2017-05-16T04:19:29.103Z,20
2017-05-16T04:20:09.644Z,20
2017-05-16T04:20:50.228Z,20
2017-05-16T04:21:30.755Z,20
2017-05-16T04:22:11.299Z,20
2017-05-16T04:22:51.852Z,20
2017-05-16T04:23:32.424Z,20
2017-05-16T04:24:12.958Z,20
2017-05-16T04:24:53.501Z,20
2017-05-16T04:25:34.066Z,20
2017-05-16T04:26:14.622Z,20
2017-05-16T04:26:55.162Z,25
2017-05-16T04:27:35.714Z,25
2017-05-16T04:28:16.252Z,25
2017-05-16T04:28:56.923Z,25
2017-05-16T04:29:38.384Z,25
2017-05-16T04:30:18.971Z,25
2017-05-16T04:30:59.528Z,25
2017-05-16T04:31:40.066Z,25
2017-05-16T04:32:20.623Z,30
2017-05-16T04:33:01.164Z,30
2017-05-16T04:33:41.717Z,30
2017-05-16T04:34:22.246Z,30
2017-05-16T04:35:02.795Z,30
2017-05-16T04:35:43.333Z,30
2017-05-16T04:36:23.909Z,35
2017-05-16T04:37:04.497Z,35
2017-05-16T04:37:45.030Z,35
2017-05-16T04:38:25.625Z,35
2017-05-16T04:39:06.175Z,35
2017-05-16T04:39:46.684Z,35
2017-05-16T04:40:27.243Z,40
2017-05-16T04:41:07.813Z,40
2017-05-16T04:41:48.431Z,40
2017-05-16T04:42:28.974Z,40
2017-05-16T04:43:09.529Z,40
2017-05-16T04:43:50.078Z,45
2017-05-16T04:44:30.607Z,45
2017-05-16T04:45:11.154Z,45
2017-05-16T04:45:51.710Z,45
2017-05-16T04:46:32.259Z,45
2017-05-16T04:47:12.810Z,45
2017-05-16T04:47:53.400Z,45
2017-05-16T04:48:33.937Z,45
2017-05-16T04:49:14.490Z,50
2017-05-16T04:49:55.038Z,50
2017-05-16T04:50:35.603Z,50
2017-05-16T04:51:16.124Z,50
2017-05-16T04:51:56.671Z,50
2017-05-16T04:52:37.215Z,55
2017-05-16T04:53:17.773Z,55
2017-05-16T04:53:58.323Z,55
2017-05-16T04:54:38.864Z,55
2017-05-16T04:55:19.427Z,55
2017-05-16T04:55:59.977Z,55
2017-05-16T04:56:40.517Z,55
2017-05-16T04:57:21.060Z,60
2017-05-16T04:58:01.599Z,60
2017-05-16T04:58:42.146Z,60
2017-05-16T04:59:22.684Z,60
2017-05-16T05:00:03.232Z,60
2017-05-16T05:00:43.761Z,60
2017-05-16T05:01:24.301Z,60
2017-05-16T05:02:04.844Z,60
2017-05-16T05:02:45.382Z,65
2017-05-16T05:03:25.935Z,65
2017-05-16T05:04:06.473Z,65
2017-05-16T05:04:47.026Z,65
2017-05-16T05:05:27.582Z,65
2017-05-16T05:06:08.123Z,70
2017-05-16T05:06:48.695Z,70
2017-05-16T05:07:29.242Z,70
2017-05-16T05:08:09.793Z,75
2017-05-16T05:08:50.339Z,75
2017-05-16T05:09:30.895Z,75
2017-05-16T05:10:11.443Z,75
2017-05-16T05:10:51.975Z,75
2017-05-16T05:11:32.523Z,80
2017-05-16T05:12:13.098Z,80
2017-05-16T05:12:53.649Z,85
2017-05-16T05:13:34.200Z,85
2017-05-16T05:14:14.753Z,90
2017-05-16T05:14:55.303Z,95
2017-05-16T05:15:35.851Z,100
2017-05-16T05:16:16.401Z,105
2017-05-16T05:16:56.946Z,105
2017-05-16T05:17:37.504Z,115
2017-05-16T05:18:18.083Z,125
2017-05-16T05:18:58.603Z,125
2017-05-16T05:19:39.150Z,130
2017-05-16T05:20:19.745Z,140
2017-05-16T05:21:00.292Z,145
2017-05-16T05:21:40.818Z,145
2017-05-16T05:22:21.359Z,150
2017-05-16T05:23:01.901Z,150
2017-05-16T05:23:42.449Z,155
2017-05-16T05:24:23.081Z,155
2017-05-16T05:25:03.615Z,155
2017-05-16T05:25:44.169Z,155
2017-05-16T05:26:24.733Z,160
2017-05-16T05:27:05.289Z,160
2017-05-16T05:27:45.869Z,160
2017-05-16T05:28:26.419Z,155
2017-05-16T05:29:06.972Z,160
2017-05-16T05:29:47.514Z,160
2017-05-16T05:30:28.073Z,160
2017-05-16T05:31:08.625Z,160
2017-05-16T05:31:49.198Z,160
2017-05-16T05:32:29.726Z,155
2017-05-16T05:33:10.274Z,155
2017-05-16T05:33:50.866Z,150
2017-05-16T05:34:31.372Z,145
2017-05-16T05:35:11.934Z,140
2017-05-16T05:35:52.458Z,140
2017-05-16T05:36:33.030Z,135
2017-05-16T05:37:13.581Z,135
2017-05-16T05:37:54.126Z,130
2017-05-16T05:38:34.663Z,125
2017-05-16T05:39:15.261Z,125
2017-05-16T05:39:55.888Z,125
2017-05-16T05:40:36.501Z,125
2017-05-16T05:41:17.083Z,125
2017-05-16T05:41:57.642Z,130
2017-05-16T05:42:38.173Z,135
2017-05-16T05:43:18.737Z,135
2017-05-16T05:43:59.295Z,140
2017-05-16T05:44:39.845Z,145
2017-05-16T05:45:20.395Z,150
2017-05-16T05:46:00.951Z,150
2017-05-16T05:46:41.502Z,155
2017-05-16T05:47:22.049Z,160
2017-05-16T05:48:02.600Z,160
2017-05-16T05:48:43.155Z,165
2017-05-16T05:49:23.683Z,165
2017-05-16T05:50:04.230Z,165
2017-05-16T05:50:44.740Z,165
2017-05-16T05:51:25.274Z,170
2017-05-16T05:52:05.787Z,175
2017-05-16T05:52:46.334Z,175
2017-05-16T05:53:27.015Z,175
2017-05-16T05:54:07.586Z,180
2017-05-16T05:54:48.339Z,180
2017-05-16T05:55:29.079Z,180
2017-05-16T05:56:09.618Z,180
2017-05-16T05:56:50.180Z,180
2017-05-16T05:57:30.738Z,180
2017-05-16T05:58:11.280Z,185
2017-05-16T05:58:51.844Z,185
2017-05-16T05:59:32.386Z,190
2017-05-16T06:00:12.962Z,190
2017-05-16T06:00:53.463Z,195
2017-05-16T06:01:34.057Z,195
2017-05-16T06:02:14.630Z,200
2017-05-16T06:02:55.181Z,200
2017-05-16T06:03:35.710Z,200
2017-05-16T06:04:16.253Z,205
2017-05-16T06:04:56.789Z,205
2017-05-16T06:05:37.333Z,205
2017-05-16T06:06:17.902Z,210
2017-05-16T06:06:58.439Z,210
2017-05-16T06:07:39.056Z,210
2017-05-16T06:08:19.666Z,205
2017-05-16T06:09:00.299Z,205
2017-05-16T06:09:40.833Z,200
2017-05-16T06:10:21.374Z,195
2017-05-16T06:11:01.944Z,195
2017-05-16T06:11:42.484Z,190
2017-05-16T06:12:23.104Z,190
2017-05-16T06:13:05.001Z,190
2017-05-16T06:13:45.067Z,190
2017-05-16T06:14:25.642Z,190
2017-05-16T06:15:06.194Z,190
2017-05-16T06:15:46.769Z,190
2017-05-16T06:16:27.343Z,190
2017-05-16T06:17:07.885Z,190
2017-05-16T06:17:48.428Z,190
2017-05-16T06:18:28.982Z,185
2017-05-16T06:19:09.530Z,185
2017-05-16T06:21:23.826Z,180
2017-05-16T06:22:04.395Z,180
2017-05-16T06:22:44.927Z,180
2017-05-16T06:23:25.474Z,180
2017-05-16T06:24:06.018Z,180
2017-05-16T06:24:46.592Z,180
2017-05-16T06:25:27.149Z,185
2017-05-16T06:26:07.715Z,185
2017-05-16T06:26:48.228Z,190
2017-05-16T06:27:29.634Z,195
2017-05-16T06:28:10.191Z,195
2017-05-16T06:28:50.728Z,200
2017-05-16T06:29:31.274Z,200
2017-05-16T06:30:11.853Z,205
2017-05-16T06:30:52.425Z,205
2017-05-16T06:31:32.926Z,210
2017-05-16T06:32:13.454Z,210
2017-05-16T06:32:54.036Z,210
2017-05-16T06:33:34.591Z,215
2017-05-16T06:34:15.149Z,215
2017-05-16T06:34:55.650Z,220
2017-05-16T06:35:36.226Z,220
2017-05-16T06:36:16.750Z,225
2017-05-16T06:36:57.297Z,230
2017-05-16T06:37:37.938Z,235
2017-05-16T06:38:18.460Z,240
2017-05-16T06:38:58.987Z,245
2017-05-16T06:39:39.543Z,245
2017-05-16T06:40:20.083Z,250
2017-05-16T06:41:00.613Z,255
2017-05-16T06:41:41.153Z,260
2017-05-16T06:42:21.701Z,265
2017-05-16T06:43:02.245Z,270
2017-05-16T06:43:42.796Z,275
2017-05-16T06:44:23.330Z,280
2017-05-16T06:45:03.894Z,285
2017-05-16T06:45:44.458Z,285
2017-05-16T06:46:24.979Z,285
2017-05-16T06:47:05.544Z,285
2017-05-16T06:47:46.082Z,285
2017-05-16T06:48:26.609Z,290
2017-05-16T06:49:07.152Z,290
2017-05-16T06:49:47.686Z,295
2017-05-16T06:50:28.236Z,300
2017-05-16T06:51:08.771Z,305
2017-05-16T06:51:49.315Z,310
2017-05-16T06:52:29.863Z,305
2017-05-16T06:53:10.412Z,310
2017-05-16T06:53:50.960Z,300
2017-05-16T06:54:31.517Z,305
2017-05-16T06:55:12.056Z,305
2017-05-16T06:55:52.610Z,305
2017-05-16T06:56:33.161Z,305
2017-05-16T06:57:13.709Z,305
2017-05-16T06:57:54.269Z,305
2017-05-16T06:58:34.813Z,310
2017-05-16T06:59:15.356Z,310
2017-05-16T06:59:55.898Z,315
2017-05-16T07:00:36.448Z,315
2017-05-16T07:01:16.980Z,320
2017-05-16T07:01:57.572Z,320
2017-05-16T07:02:38.117Z,325
2017-05-16T07:03:18.665Z,335
2017-05-16T07:03:59.217Z,335
2017-05-16T07:04:39.768Z,345
2017-05-16T07:05:20.320Z,350
2017-05-16T07:06:00.883Z,360
2017-05-16T07:06:41.403Z,360
2017-05-16T07:07:21.957Z,370
2017-05-16T07:08:02.487Z,375
2017-05-16T07:08:43.034Z,380
2017-05-16T07:09:23.570Z,390
2017-05-16T07:10:04.126Z,400
2017-05-16T07:10:44.675Z,405
2017-05-16T07:11:25.216Z,410
2017-05-16T07:12:05.742Z,415
2017-05-16T07:12:46.291Z,415
2017-05-16T07:13:26.821Z,415
2017-05-16T07:14:07.371Z,420
2017-05-16T07:14:47.913Z,425
2017-05-16T07:15:28.465Z,425
2017-05-16T07:16:09.004Z,430
2017-05-16T07:16:49.542Z,435
2017-05-16T07:17:30.082Z,445
2017-05-16T07:18:10.606Z,450
2017-05-16T07:18:51.175Z,460
2017-05-16T07:19:31.725Z,470
2017-05-16T07:20:12.266Z,480
2017-05-16T07:20:52.809Z,475
2017-05-16T07:21:33.350Z,470
2017-05-16T07:22:13.912Z,475
2017-05-16T07:22:54.468Z,470
2017-05-16T07:23:35.055Z,475
2017-05-16T07:24:15.589Z,470
2017-05-16T07:24:56.131Z,465
2017-05-16T07:25:36.669Z,470
2017-05-16T07:26:17.205Z,480
2017-05-16T07:26:57.746Z,485
2017-05-16T07:27:38.294Z,500
2017-05-16T07:28:18.876Z,535
2017-05-16T07:28:59.408Z,515
2017-05-16T07:29:39.958Z,530
2017-05-16T07:30:20.518Z,540
2017-05-16T07:31:01.079Z,535
2017-05-16T07:31:41.614Z,530
2017-05-16T07:32:22.182Z,530
2017-05-16T07:33:02.729Z,535
2017-05-16T07:33:43.279Z,530
2017-05-16T07:34:23.819Z,530
2017-05-16T07:35:04.385Z,530
2017-05-16T07:35:44.927Z,520
2017-05-16T07:36:25.475Z,525
2017-05-16T07:37:06.022Z,530
2017-05-16T07:37:46.565Z,530
2017-05-16T07:38:27.108Z,510
2017-05-16T07:39:07.664Z,505
2017-05-16T07:39:48.211Z,495
2017-05-16T07:40:28.745Z,490
2017-05-16T07:41:09.297Z,485
2017-05-16T07:41:49.853Z,485
2017-05-16T07:42:30.479Z,490
2017-05-16T07:43:11.017Z,495
2017-05-16T07:43:51.566Z,495
2017-05-16T07:44:32.136Z,495
2017-05-16T07:45:12.643Z,500
2017-05-16T07:45:53.177Z,505
2017-05-16T07:46:33.731Z,510
2017-05-16T07:47:14.287Z,515
2017-05-16T07:47:54.851Z,515
2017-05-16T07:48:35.384Z,530
2017-05-16T07:49:15.936Z,530
2017-05-16T07:49:56.530Z,535
2017-05-16T07:50:37.031Z,550
2017-05-16T07:51:17.598Z,555
2017-05-16T07:51:58.149Z,560
2017-05-16T07:52:38.699Z,560
2017-05-16T07:53:19.250Z,560
2017-05-16T07:53:59.811Z,565
2017-05-16T07:54:40.361Z,570
2017-05-16T07:55:20.911Z,585
2017-05-16T07:56:01.565Z,595
2017-05-16T07:56:42.111Z,615
2017-05-16T07:57:22.659Z,625
2017-05-16T07:58:03.208Z,640
2017-05-16T07:58:43.760Z,645
2017-05-16T07:59:24.297Z,655
2017-05-16T08:00:04.833Z,670
2017-05-16T08:00:45.391Z,685
2017-05-16T08:01:25.907Z,700
2017-05-16T08:02:06.456Z,725
2017-05-16T08:02:47.011Z,775
2017-05-16T08:03:27.542Z,805
2017-05-16T08:04:08.083Z,875
2017-05-16T08:04:48.622Z,890
2017-05-16T08:05:29.171Z,830
2017-05-16T08:06:09.727Z,910
2017-05-16T08:06:50.269Z,985
2017-05-16T08:07:30.822Z,1130
2017-05-16T08:08:11.429Z,1285
2017-05-16T08:08:51.925Z,930
2017-05-16T08:09:32.473Z,995
2017-05-16T08:10:13.023Z,970
2017-05-16T08:10:53.572Z,930
2017-05-16T08:11:34.126Z,1130
2017-05-16T08:12:14.681Z,1240
2017-05-16T08:12:55.284Z,1020
2017-05-16T08:13:35.785Z,1080
2017-05-16T08:14:16.323Z,995
2017-05-16T08:14:56.869Z,870
2017-05-16T08:15:37.414Z,875
2017-05-16T08:16:17.962Z,895
2017-05-16T08:16:58.512Z,935
2017-05-16T08:17:39.037Z,955
2017-05-16T08:18:19.560Z,1230
2017-05-16T08:19:00.091Z,1035
2017-05-16T08:19:40.628Z,1415
2017-05-16T08:20:21.170Z,1290
2017-05-16T08:21:01.708Z,1555
2017-05-16T08:21:42.254Z,1285
2017-05-16T08:22:22.796Z,1635
2017-05-16T08:23:03.324Z,1570
2017-05-16T08:23:43.871Z,2165
2017-05-16T08:24:24.421Z,1660
2017-05-16T08:25:04.969Z,1460
2017-05-16T08:25:45.517Z,1365
2017-05-16T08:26:26.063Z,2010
2017-05-16T08:27:06.605Z,1455
2017-05-16T08:27:47.151Z,1215
2017-05-16T08:28:27.695Z,1235
2017-05-16T08:29:08.236Z,1125
2017-05-16T08:29:48.783Z,1175
2017-05-16T08:30:29.330Z,1565
2017-05-16T08:31:09.888Z,1265
2017-05-16T08:31:50.481Z,1150
2017-05-16T08:32:30.986Z,1060
2017-05-16T08:33:11.535Z,1145
2017-05-16T08:33:52.086Z,1360
2017-05-16T08:34:32.652Z,1400
2017-05-16T08:35:13.206Z,1625
2017-05-16T08:35:53.742Z,1410
2017-05-16T08:36:34.315Z,2700
2017-05-16T08:37:14.865Z,2805
2017-05-16T08:37:55.453Z,2050
2017-05-16T08:38:36.020Z,2040
2017-05-16T08:39:16.571Z,1680
2017-05-16T08:39:57.169Z,1555
2017-05-16T08:40:37.698Z,1310
2017-05-16T08:41:18.274Z,1465
2017-05-16T08:41:58.838Z,1450
2017-05-16T08:42:39.394Z,1380
2017-05-16T08:43:19.941Z,1460
2017-05-16T08:44:00.512Z,1390
2017-05-16T08:44:41.101Z,1200
2017-05-16T08:45:21.638Z,1300
2017-05-16T08:46:02.159Z,1410
2017-05-16T08:46:42.708Z,1700
2017-05-16T08:47:23.243Z,2100
2017-05-16T08:48:03.785Z,1620
2017-05-16T08:48:44.334Z,2435
2017-05-16T08:49:24.881Z,2310
2017-05-16T08:50:05.423Z,2375
2017-05-16T08:50:45.966Z,2190
2017-05-16T08:51:26.515Z,1670
2017-05-16T08:52:07.103Z,1620
2017-05-16T08:52:47.660Z,2210
2017-05-16T08:53:28.210Z,2505
2017-05-16T08:54:08.759Z,3415
2017-05-16T08:54:49.303Z,2175
2017-05-16T08:55:29.851Z,1940
2017-05-16T08:56:10.401Z,2340
2017-05-16T08:56:50.956Z,2290
2017-05-16T08:57:31.503Z,3920
2017-05-16T08:58:12.062Z,2715
2017-05-16T08:58:52.633Z,2610
2017-05-16T08:59:33.141Z,2205
2017-05-16T09:00:13.678Z,2125
2017-05-16T09:00:54.219Z,1990
2017-05-16T09:01:34.774Z,2160
2017-05-16T09:02:15.324Z,2045
2017-05-16T09:02:55.868Z,1800
2017-05-16T09:03:36.425Z,1895
2017-05-16T09:04:16.975Z,1550
2017-05-16T09:04:57.531Z,1600
2017-05-16T09:05:38.092Z,1650
2017-05-16T09:06:18.633Z,1740
2017-05-16T09:06:59.176Z,1400
2017-05-16T09:07:39.707Z,1500
2017-05-16T09:08:20.233Z,1425
2017-05-16T09:09:00.770Z,2325
2017-05-16T09:09:41.314Z,1605
2017-05-16T09:10:21.860Z,1435
2017-05-16T09:11:02.410Z,1445
2017-05-16T09:11:42.970Z,1310
2017-05-16T09:12:23.507Z,1310
2017-05-16T09:13:04.050Z,1320
2017-05-16T09:13:44.604Z,1300
2017-05-16T09:14:25.154Z,1295
2017-05-16T09:15:05.692Z,1280
2017-05-16T09:15:46.262Z,1270
2017-05-16T09:16:26.796Z,1290
2017-05-16T09:17:07.346Z,1305
2017-05-16T09:17:47.898Z,1295
2017-05-16T09:18:28.443Z,1315
2017-05-16T09:19:08.996Z,1335
2017-05-16T09:19:49.570Z,1435
2017-05-16T09:20:30.120Z,1810
2017-05-16T09:21:10.683Z,1845
2017-05-16T09:21:51.237Z,1760
2017-05-16T09:22:31.827Z,1480
2017-05-16T09:23:12.394Z,1365
2017-05-16T09:23:52.948Z,1290
2017-05-16T09:24:33.503Z,1285
2017-05-16T09:25:14.062Z,1290
2017-05-16T09:25:54.635Z,1280
2017-05-16T09:26:35.194Z,1300
2017-05-16T09:27:15.748Z,1325
2017-05-16T09:27:56.299Z,1370
2017-05-16T09:28:36.856Z,1420
2017-05-16T09:29:17.407Z,1525
2017-05-16T09:29:57.960Z,1660
2017-05-16T09:30:38.510Z,2125
2017-05-16T09:31:19.053Z,1875
2017-05-16T09:31:59.591Z,1900
2017-05-16T09:32:40.137Z,1930
2017-05-16T09:33:20.692Z,2070
2017-05-16T09:34:01.240Z,2155
2017-05-16T09:34:41.791Z,2150
2017-05-16T09:35:22.333Z,2280
2017-05-16T09:36:02.908Z,2125
2017-05-16T09:36:43.456Z,1915